sensor_id;sensor_type;location;lat;lon;timestamp;pressure;altitude;pressure_sealevel;temperature;humidity
50702;BME280;36670;50.094;8.496;2023-01-26T00:01:00;101113.97;;;3.95;67.20
50702;BME280;36670;50.094;8.496;2023-01-26T00:03:26;101109.72;;;4.22;66.84
50702;BME280;36670;50.094;8.496;2023-01-26T00:05:51;101106.34;;;4.05;66.92
50702;BME280;36670;50.094;8.496;2023-01-26T00:08:17;101090.47;;;4.31;66.86
50702;BME280;36670;50.094;8.496;2023-01-26T00:10:42;101103.22;;;4.08;66.38
50702;BME280;36670;50.094;8.496;2023-01-26T00:13:16;101097.31;;;3.90;67.19
50702;BME280;36670;50.094;8.496;2023-01-26T00:15:46;101092.59;;;3.99;66.29
50702;BME280;36670;50.094;8.496;2023-01-26T00:18:12;101089.94;;;4.20;66.57
50702;BME280;36670;50.094;8.496;2023-01-26T00:20:37;101086.22;;;4.28;66.17
50702;BME280;36670;50.094;8.496;2023-01-26T00:23:02;101088.56;;;3.65;66.99
50702;BME280;36670;50.094;8.496;2023-01-26T00:25:27;101079.50;;;3.64;67.53
50702;BME280;36670;50.094;8.496;2023-01-26T00:27:53;101080.81;;;3.68;67.86
50702;BME280;36670;50.094;8.496;2023-01-26T00:30:18;101077.72;;;2.80;68.99
50702;BME280;36670;50.094;8.496;2023-01-26T00:32:44;101085.00;;;2.88;68.65
50702;BME280;36670;50.094;8.496;2023-01-26T00:35:10;101086.19;;;3.08;68.94
50702;BME280;36670;50.094;8.496;2023-01-26T00:37:35;101077.69;;;3.41;68.45
50702;BME280;36670;50.094;8.496;2023-01-26T00:40:00;101082.97;;;3.88;67.10
50702;BME280;36670;50.094;8.496;2023-01-26T00:42:25;101082.22;;;3.64;67.87
50702;BME280;36670;50.094;8.496;2023-01-26T00:44:51;101070.25;;;3.50;68.09
50702;BME280;36670;50.094;8.496;2023-01-26T00:47:17;101076.84;;;3.56;67.78
50702;BME280;36670;50.094;8.496;2023-01-26T00:49:43;101081.84;;;3.52;67.52
50702;BME280;36670;50.094;8.496;2023-01-26T00:52:09;101077.63;;;3.50;67.34
50702;BME280;36670;50.094;8.496;2023-01-26T00:54:43;101073.75;;;3.44;67.33
50702;BME280;36670;50.094;8.496;2023-01-26T00:57:09;101079.00;;;2.93;67.92
50702;BME280;36670;50.094;8.496;2023-01-26T00:59:34;101081.16;;;2.97;67.76
50702;BME280;36670;50.094;8.496;2023-01-26T01:01:59;101075.78;;;2.89;67.99
50702;BME280;36670;50.094;8.496;2023-01-26T01:04:28;101075.19;;;2.79;68.20
50702;BME280;36670;50.094;8.496;2023-01-26T01:06:55;101077.19;;;2.62;68.55
50702;BME280;36670;50.094;8.496;2023-01-26T01:09:21;101083.50;;;2.62;68.96
50702;BME280;36670;50.094;8.496;2023-01-26T01:11:46;101078.81;;;2.71;68.52
50702;BME280;36670;50.094;8.496;2023-01-26T01:14:12;101079.53;;;2.42;69.08
50702;BME280;36670;50.094;8.496;2023-01-26T01:16:39;101075.28;;;2.39;69.86
50702;BME280;36670;50.094;8.496;2023-01-26T01:19:05;101080.59;;;2.87;69.44
50702;BME280;36670;50.094;8.496;2023-01-26T01:21:30;101090.47;;;2.65;69.50
50702;BME280;36670;50.094;8.496;2023-01-26T01:23:56;101087.06;;;2.63;69.66
50702;BME280;36670;50.094;8.496;2023-01-26T01:26:22;101088.38;;;2.67;68.91
50702;BME280;36670;50.094;8.496;2023-01-26T01:28:47;101087.06;;;2.63;68.89
50702;BME280;36670;50.094;8.496;2023-01-26T01:31:14;101082.94;;;2.44;68.77
50702;BME280;36670;50.094;8.496;2023-01-26T01:33:40;101079.72;;;2.40;69.72
50702;BME280;36670;50.094;8.496;2023-01-26T01:36:09;101087.13;;;2.23;69.93
50702;BME280;36670;50.094;8.496;2023-01-26T01:38:35;101081.13;;;2.59;68.71
50702;BME280;36670;50.094;8.496;2023-01-26T01:41:01;101072.50;;;2.47;68.98
50702;BME280;36670;50.094;8.496;2023-01-26T01:43:27;101077.81;;;2.41;69.54
50702;BME280;36670;50.094;8.496;2023-01-26T01:45:53;101082.16;;;2.58;68.91
50702;BME280;36670;50.094;8.496;2023-01-26T01:50:56;101064.94;;;2.81;67.31
50702;BME280;36670;50.094;8.496;2023-01-26T01:53:32;101062.50;;;2.63;68.38
50702;BME280;36670;50.094;8.496;2023-01-26T01:56:02;101066.50;;;2.75;68.01
50702;BME280;36670;50.094;8.496;2023-01-26T01:58:30;101057.88;;;3.10;67.50
50702;BME280;36670;50.094;8.496;2023-01-26T02:00:57;101057.88;;;3.10;66.78
50702;BME280;36670;50.094;8.496;2023-01-26T02:03:24;101054.03;;;2.81;67.36
50702;BME280;36670;50.094;8.496;2023-01-26T02:08:21;101049.66;;;3.33;66.44
50702;BME280;36670;50.094;8.496;2023-01-26T02:10:49;101056.94;;;2.79;66.13
50702;BME280;36670;50.094;8.496;2023-01-26T02:16:38;101056.69;;;2.66;66.33
50702;BME280;36670;50.094;8.496;2023-01-26T02:19:09;101050.22;;;2.44;66.13
50702;BME280;36670;50.094;8.496;2023-01-26T02:21:38;101048.84;;;2.16;66.69
50702;BME280;36670;50.094;8.496;2023-01-26T02:26:32;101044.06;;;2.88;65.92
50702;BME280;36670;50.094;8.496;2023-01-26T02:28:58;101046.34;;;2.84;66.01
50702;BME280;36670;50.094;8.496;2023-01-26T02:31:25;101049.56;;;2.65;66.11
50702;BME280;36670;50.094;8.496;2023-01-26T02:33:51;101045.97;;;2.64;66.13
50702;BME280;36670;50.094;8.496;2023-01-26T02:36:24;101033.91;;;2.59;65.61
50702;BME280;36670;50.094;8.496;2023-01-26T02:38:52;101038.00;;;2.39;67.43
50702;BME280;36670;50.094;8.496;2023-01-26T02:41:19;101030.03;;;2.76;66.52
50702;BME280;36670;50.094;8.496;2023-01-26T02:44:17;101017.25;;;2.77;66.89
50702;BME280;36670;50.094;8.496;2023-01-26T02:46:43;101024.53;;;2.84;66.10
50702;BME280;36670;50.094;8.496;2023-01-26T02:49:09;101022.31;;;2.65;66.94
50702;BME280;36670;50.094;8.496;2023-01-26T02:51:53;101017.31;;;2.68;66.23
50702;BME280;36670;50.094;8.496;2023-01-26T02:54:19;101014.91;;;2.73;66.37
50702;BME280;36670;50.094;8.496;2023-01-26T02:57:02;101004.91;;;3.34;65.06
50702;BME280;36670;50.094;8.496;2023-01-26T02:59:28;101010.75;;;3.16;65.94
50702;BME280;36670;50.094;8.496;2023-01-26T03:01:55;101013.56;;;2.69;66.41
50702;BME280;36670;50.094;8.496;2023-01-26T03:04:21;101009.22;;;2.98;65.84
50702;BME280;36670;50.094;8.496;2023-01-26T03:06:47;101011.00;;;3.06;65.19
50702;BME280;36670;50.094;8.496;2023-01-26T03:09:12;101004.16;;;3.10;65.22
50702;BME280;36670;50.094;8.496;2023-01-26T03:11:37;101002.81;;;2.91;65.31
50702;BME280;36670;50.094;8.496;2023-01-26T03:14:12;100995.22;;;3.16;64.65
50702;BME280;36670;50.094;8.496;2023-01-26T03:16:39;100990.50;;;3.10;65.26
50702;BME280;36670;50.094;8.496;2023-01-26T03:19:05;100989.44;;;2.96;65.08
50702;BME280;36670;50.094;8.496;2023-01-26T03:21:34;100996.13;;;2.94;66.07
50702;BME280;36670;50.094;8.496;2023-01-26T03:24:18;100994.78;;;3.42;65.10
50702;BME280;36670;50.094;8.496;2023-01-26T03:27:02;100986.44;;;3.06;65.27
50702;BME280;36670;50.094;8.496;2023-01-26T03:29:45;100992.78;;;3.36;64.94
50702;BME280;36670;50.094;8.496;2023-01-26T03:32:11;100990.63;;;3.47;65.02
50702;BME280;36670;50.094;8.496;2023-01-26T03:34:37;100983.81;;;3.57;64.67
50702;BME280;36670;50.094;8.496;2023-01-26T03:37:03;100989.31;;;3.42;64.77
50702;BME280;36670;50.094;8.496;2023-01-26T03:39:31;100983.94;;;3.49;64.37
50702;BME280;36670;50.094;8.496;2023-01-26T03:42:15;100975.25;;;3.75;63.60
50702;BME280;36670;50.094;8.496;2023-01-26T03:44:59;100972.75;;;3.44;64.87
50702;BME280;36670;50.094;8.496;2023-01-26T03:47:43;100964.91;;;3.71;63.44
50702;BME280;36670;50.094;8.496;2023-01-26T03:50:27;100978.19;;;2.99;64.92
50702;BME280;36670;50.094;8.496;2023-01-26T03:53:13;100972.56;;;3.31;65.00
50702;BME280;36670;50.094;8.496;2023-01-26T03:55:58;100965.59;;;2.98;64.26
50702;BME280;36670;50.094;8.496;2023-01-26T03:58:42;100967.84;;;3.10;64.70
50702;BME280;36670;50.094;8.496;2023-01-26T04:01:07;100962.94;;;2.90;65.54
50702;BME280;36670;50.094;8.496;2023-01-26T04:03:35;100959.59;;;2.65;65.51
50702;BME280;36670;50.094;8.496;2023-01-26T04:06:19;100957.06;;;2.63;65.99
50702;BME280;36670;50.094;8.496;2023-01-26T04:09:03;100963.91;;;2.59;66.26
50702;BME280;36670;50.094;8.496;2023-01-26T04:11:29;100945.16;;;2.94;65.79
50702;BME280;36670;50.094;8.496;2023-01-26T04:13:54;100959.09;;;3.44;64.82
50702;BME280;36670;50.094;8.496;2023-01-26T04:16:38;100956.91;;;3.54;64.37
50702;BME280;36670;50.094;8.496;2023-01-26T04:19:22;100953.16;;;3.55;64.62
50702;BME280;36670;50.094;8.496;2023-01-26T04:22:06;100947.66;;;3.70;64.37
50702;BME280;36670;50.094;8.496;2023-01-26T04:24:31;100934.94;;;3.99;63.61
50702;BME280;36670;50.094;8.496;2023-01-26T04:26:56;100942.63;;;3.37;64.64
50702;BME280;36670;50.094;8.496;2023-01-26T04:29:22;100944.41;;;3.00;65.02
50702;BME280;36670;50.094;8.496;2023-01-26T04:31:47;100938.91;;;2.70;65.37
50702;BME280;36670;50.094;8.496;2023-01-26T04:34:14;100943.25;;;2.80;65.67
50702;BME280;36670;50.094;8.496;2023-01-26T04:36:40;100942.06;;;2.97;65.08
50702;BME280;36670;50.094;8.496;2023-01-26T04:39:05;100939.66;;;2.64;65.78
50702;BME280;36670;50.094;8.496;2023-01-26T04:41:31;100942.72;;;2.99;64.97
50702;BME280;36670;50.094;8.496;2023-01-26T04:43:57;100938.31;;;2.98;65.61
50702;BME280;36670;50.094;8.496;2023-01-26T04:46:22;100935.38;;;3.00;65.34
50702;BME280;36670;50.094;8.496;2023-01-26T04:48:47;100945.63;;;2.98;65.84
50702;BME280;36670;50.094;8.496;2023-01-26T04:51:15;100943.94;;;2.97;65.18
50702;BME280;36670;50.094;8.496;2023-01-26T04:53:41;100940.34;;;2.96;65.42
50702;BME280;36670;50.094;8.496;2023-01-26T04:56:18;100935.06;;;2.65;66.06
50702;BME280;36670;50.094;8.496;2023-01-26T04:58:43;100938.09;;;2.85;65.96
50702;BME280;36670;50.094;8.496;2023-01-26T05:01:08;100933.78;;;3.05;64.82
50702;BME280;36670;50.094;8.496;2023-01-26T05:03:34;100932.75;;;3.06;65.07
50702;BME280;36670;50.094;8.496;2023-01-26T05:05:59;100929.34;;;3.04;65.81
50702;BME280;36670;50.094;8.496;2023-01-26T05:08:24;100932.91;;;3.50;65.32
50702;BME280;36670;50.094;8.496;2023-01-26T05:10:49;100928.19;;;3.58;65.14
50702;BME280;36670;50.094;8.496;2023-01-26T05:13:16;100931.53;;;2.94;65.91
50702;BME280;36670;50.094;8.496;2023-01-26T05:15:42;100929.72;;;3.31;64.80
50702;BME280;36670;50.094;8.496;2023-01-26T05:18:09;100926.03;;;3.54;65.04
50702;BME280;36670;50.094;8.496;2023-01-26T05:20:37;100927.44;;;3.65;65.21
50702;BME280;36670;50.094;8.496;2023-01-26T05:23:03;100922.00;;;3.86;64.75
50702;BME280;36670;50.094;8.496;2023-01-26T05:25:28;100918.66;;;3.69;63.69
50702;BME280;36670;50.094;8.496;2023-01-26T05:27:53;100920.16;;;3.05;64.97
50702;BME280;36670;50.094;8.496;2023-01-26T05:30:19;100918.63;;;3.03;65.08
50702;BME280;36670;50.094;8.496;2023-01-26T05:32:44;100924.84;;;2.82;64.66
50702;BME280;36670;50.094;8.496;2023-01-26T05:35:10;100907.91;;;2.33;66.05
50702;BME280;36670;50.094;8.496;2023-01-26T05:37:35;100916.00;;;2.18;66.42
50702;BME280;36670;50.094;8.496;2023-01-26T05:40:00;100915.94;;;2.27;66.08
50702;BME280;36670;50.094;8.496;2023-01-26T05:42:26;100924.31;;;2.25;66.92
50702;BME280;36670;50.094;8.496;2023-01-26T05:44:52;100930.97;;;2.22;66.18
50702;BME280;36670;50.094;8.496;2023-01-26T05:47:18;100932.84;;;2.22;66.72
50702;BME280;36670;50.094;8.496;2023-01-26T05:49:43;100929.84;;;1.94;66.43
50702;BME280;36670;50.094;8.496;2023-01-26T05:52:15;100938.81;;;2.26;65.74
50702;BME280;36670;50.094;8.496;2023-01-26T05:54:41;100942.47;;;2.10;65.16
50702;BME280;36670;50.094;8.496;2023-01-26T05:57:06;100938.75;;;1.79;65.66
50702;BME280;36670;50.094;8.496;2023-01-26T05:59:32;100937.19;;;1.85;66.19
50702;BME280;36670;50.094;8.496;2023-01-26T06:01:58;100936.16;;;1.86;66.67
50702;BME280;36670;50.094;8.496;2023-01-26T06:04:24;100936.31;;;1.93;65.39
50702;BME280;36670;50.094;8.496;2023-01-26T06:06:54;100950.59;;;1.63;65.73
50702;BME280;36670;50.094;8.496;2023-01-26T06:09:20;100947.56;;;1.90;66.27
50702;BME280;36670;50.094;8.496;2023-01-26T06:11:46;100949.34;;;1.74;66.34
50702;BME280;36670;50.094;8.496;2023-01-26T06:14:11;100954.47;;;1.69;66.43
50702;BME280;36670;50.094;8.496;2023-01-26T06:16:37;100953.03;;;1.50;66.26
50702;BME280;36670;50.094;8.496;2023-01-26T06:19:02;100955.44;;;1.45;66.69
50702;BME280;36670;50.094;8.496;2023-01-26T06:21:28;100949.63;;;1.56;65.77
50702;BME280;36670;50.094;8.496;2023-01-26T06:23:53;100958.50;;;1.42;65.98
50702;BME280;36670;50.094;8.496;2023-01-26T06:26:19;100959.44;;;1.26;66.55
50702;BME280;36670;50.094;8.496;2023-01-26T06:28:44;100955.00;;;1.25;67.04
50702;BME280;36670;50.094;8.496;2023-01-26T06:31:09;100959.38;;;1.42;66.46
50702;BME280;36670;50.094;8.496;2023-01-26T06:33:35;100957.41;;;1.59;66.11
50702;BME280;36670;50.094;8.496;2023-01-26T06:36:06;100954.84;;;1.66;65.67
50702;BME280;36670;50.094;8.496;2023-01-26T06:38:32;100962.13;;;1.34;65.57
50702;BME280;36670;50.094;8.496;2023-01-26T06:41:02;100966.34;;;1.76;65.60
50702;BME280;36670;50.094;8.496;2023-01-26T06:43:31;100961.09;;;1.75;65.91
50702;BME280;36670;50.094;8.496;2023-01-26T06:45:57;100963.75;;;1.83;65.68
50702;BME280;36670;50.094;8.496;2023-01-26T06:48:27;100960.75;;;2.01;65.24
50702;BME280;36670;50.094;8.496;2023-01-26T06:51:03;100970.50;;;1.95;64.47
50702;BME280;36670;50.094;8.496;2023-01-26T06:53:32;100973.03;;;1.65;64.94
50702;BME280;36670;50.094;8.496;2023-01-26T06:55:59;100970.19;;;1.90;65.13
50702;BME280;36670;50.094;8.496;2023-01-26T06:58:24;100971.59;;;2.09;64.84
50702;BME280;36670;50.094;8.496;2023-01-26T07:00:50;100970.16;;;2.21;64.14
50702;BME280;36670;50.094;8.496;2023-01-26T07:03:16;100985.50;;;1.91;63.96
50702;BME280;36670;50.094;8.496;2023-01-26T07:05:41;100980.09;;;1.83;64.41
50702;BME280;36670;50.094;8.496;2023-01-26T07:08:06;100976.72;;;1.73;64.80
50702;BME280;36670;50.094;8.496;2023-01-26T07:10:34;100979.78;;;2.09;63.20
50702;BME280;36670;50.094;8.496;2023-01-26T07:12:59;100985.25;;;1.69;64.86
50702;BME280;36670;50.094;8.496;2023-01-26T07:15:24;100991.84;;;1.44;65.57
50702;BME280;36670;50.094;8.496;2023-01-26T07:17:50;100995.72;;;1.49;65.45
50702;BME280;36670;50.094;8.496;2023-01-26T07:20:15;100991.75;;;1.68;65.00
50702;BME280;36670;50.094;8.496;2023-01-26T07:22:41;101000.22;;;1.74;64.83
50702;BME280;36670;50.094;8.496;2023-01-26T07:25:06;100999.59;;;1.63;65.57
50702;BME280;36670;50.094;8.496;2023-01-26T07:27:31;101002.69;;;1.52;64.76
50702;BME280;36670;50.094;8.496;2023-01-26T07:29:57;101004.81;;;1.73;64.99
50702;BME280;36670;50.094;8.496;2023-01-26T07:32:25;101000.56;;;1.70;64.64
50702;BME280;36670;50.094;8.496;2023-01-26T07:34:50;101007.94;;;1.93;64.69
50702;BME280;36670;50.094;8.496;2023-01-26T07:37:15;101002.81;;;1.98;64.22
50702;BME280;36670;50.094;8.496;2023-01-26T07:39:41;101000.47;;;1.56;64.30
50702;BME280;36670;50.094;8.496;2023-01-26T07:42:08;101006.09;;;1.54;64.10
50702;BME280;36670;50.094;8.496;2023-01-26T07:44:34;101012.19;;;1.64;64.26
50702;BME280;36670;50.094;8.496;2023-01-26T07:47:02;101004.81;;;1.73;64.30
50702;BME280;36670;50.094;8.496;2023-01-26T07:49:27;101010.75;;;1.37;64.72
50702;BME280;36670;50.094;8.496;2023-01-26T07:51:52;101018.53;;;1.48;65.24
50702;BME280;36670;50.094;8.496;2023-01-26T07:54:18;101008.66;;;1.87;64.56
50702;BME280;36670;50.094;8.496;2023-01-26T07:56:45;101009.50;;;1.87;63.77
50702;BME280;36670;50.094;8.496;2023-01-26T07:59:11;101010.72;;;1.85;63.81
50702;BME280;36670;50.094;8.496;2023-01-26T08:01:37;101013.78;;;1.82;64.20
50702;BME280;36670;50.094;8.496;2023-01-26T08:04:03;101016.69;;;1.80;63.93
50702;BME280;36670;50.094;8.496;2023-01-26T08:06:28;101010.47;;;1.63;63.82
50702;BME280;36670;50.094;8.496;2023-01-26T08:08:54;101018.91;;;1.37;64.46
50702;BME280;36670;50.094;8.496;2023-01-26T08:11:21;101012.50;;;1.13;65.49
50702;BME280;36670;50.094;8.496;2023-01-26T08:13:50;101016.69;;;1.41;64.88
50702;BME280;36670;50.094;8.496;2023-01-26T08:16:19;101009.09;;;1.67;64.33
50702;BME280;36670;50.094;8.496;2023-01-26T08:18:45;101022.78;;;1.51;63.64
50702;BME280;36670;50.094;8.496;2023-01-26T08:21:11;101021.53;;;1.62;64.07
50702;BME280;36670;50.094;8.496;2023-01-26T08:23:37;101021.97;;;1.82;63.07
50702;BME280;36670;50.094;8.496;2023-01-26T08:26:05;101030.38;;;2.03;62.58
50702;BME280;36670;50.094;8.496;2023-01-26T08:28:34;101017.97;;;2.01;62.50
50702;BME280;36670;50.094;8.496;2023-01-26T08:31:12;101024.69;;;1.82;63.35
50702;BME280;36670;50.094;8.496;2023-01-26T08:33:40;101020.59;;;2.17;62.64
50702;BME280;36670;50.094;8.496;2023-01-26T08:36:11;101022.84;;;2.05;63.21
50702;BME280;36670;50.094;8.496;2023-01-26T08:38:40;101027.00;;;2.25;62.58
50702;BME280;36670;50.094;8.496;2023-01-26T08:41:10;101019.47;;;2.03;62.58
50702;BME280;36670;50.094;8.496;2023-01-26T08:43:35;101017.03;;;2.40;62.13
50702;BME280;36670;50.094;8.496;2023-01-26T08:46:04;101022.06;;;1.97;63.60
50702;BME280;36670;50.094;8.496;2023-01-26T08:48:30;101028.28;;;1.82;62.81
50702;BME280;36670;50.094;8.496;2023-01-26T08:50:58;101024.75;;;1.65;63.35
50702;BME280;36670;50.094;8.496;2023-01-26T08:53:24;101026.66;;;1.57;63.78
50702;BME280;36670;50.094;8.496;2023-01-26T08:55:50;101030.19;;;1.65;63.97
50702;BME280;36670;50.094;8.496;2023-01-26T08:58:16;101018.88;;;1.85;63.52
50702;BME280;36670;50.094;8.496;2023-01-26T09:00:41;101038.59;;;1.95;62.58
50702;BME280;36670;50.094;8.496;2023-01-26T09:03:07;101031.56;;;1.61;63.35
50702;BME280;36670;50.094;8.496;2023-01-26T09:05:37;101027.84;;;2.02;62.66
50702;BME280;36670;50.094;8.496;2023-01-26T09:08:04;101029.75;;;1.85;63.10
50702;BME280;36670;50.094;8.496;2023-01-26T09:10:30;101035.03;;;1.47;62.47
50702;BME280;36670;50.094;8.496;2023-01-26T09:12:56;101032.75;;;1.59;63.25
50702;BME280;36670;50.094;8.496;2023-01-26T09:15:22;101035.31;;;2.00;62.68
50702;BME280;36670;50.094;8.496;2023-01-26T09:17:48;101042.06;;;1.73;62.54
50702;BME280;36670;50.094;8.496;2023-01-26T09:20:14;101031.50;;;1.78;62.63
50702;BME280;36670;50.094;8.496;2023-01-26T09:22:39;101045.31;;;1.68;63.11
50702;BME280;36670;50.094;8.496;2023-01-26T09:25:05;101038.34;;;1.65;62.71
50702;BME280;36670;50.094;8.496;2023-01-26T09:27:31;101045.06;;;1.55;63.27
50702;BME280;36670;50.094;8.496;2023-01-26T09:29:56;101048.38;;;1.73;62.83
50702;BME280;36670;50.094;8.496;2023-01-26T09:32:22;101050.78;;;1.60;62.83
50702;BME280;36670;50.094;8.496;2023-01-26T09:34:50;101043.59;;;1.75;61.99
50702;BME280;36670;50.094;8.496;2023-01-26T09:37:16;101041.56;;;1.77;62.38
50702;BME280;36670;50.094;8.496;2023-01-26T09:39:41;101045.41;;;1.91;61.82
50702;BME280;36670;50.094;8.496;2023-01-26T09:45:03;101045.28;;;1.76;61.92
50702;BME280;36670;50.094;8.496;2023-01-26T09:48:13;101036.66;;;2.04;61.79
50702;BME280;36670;50.094;8.496;2023-01-26T09:50:43;101038.38;;;2.05;61.74
50702;BME280;36670;50.094;8.496;2023-01-26T09:53:17;101037.38;;;1.58;61.78
50702;BME280;36670;50.094;8.496;2023-01-26T09:55:45;101037.75;;;1.39;61.70
50702;BME280;36670;50.094;8.496;2023-01-26T09:58:30;101038.13;;;1.83;62.09
50702;BME280;36670;50.094;8.496;2023-01-26T10:00:59;101041.53;;;2.17;61.60
50702;BME280;36670;50.094;8.496;2023-01-26T10:06:00;101039.03;;;2.07;60.64
50702;BME280;36670;50.094;8.496;2023-01-26T10:08:27;101033.28;;;2.02;61.64
50702;BME280;36670;50.094;8.496;2023-01-26T10:10:56;101020.97;;;2.37;60.76
50702;BME280;36670;50.094;8.496;2023-01-26T10:13:23;101032.25;;;2.96;60.69
50702;BME280;36670;50.094;8.496;2023-01-26T10:15:57;101036.31;;;2.62;59.04
50702;BME280;36670;50.094;8.496;2023-01-26T10:18:29;101036.81;;;2.57;60.47
50702;BME280;36670;50.094;8.496;2023-01-26T10:20:58;101028.34;;;2.75;59.67
50702;BME280;36670;50.094;8.496;2023-01-26T10:23:28;101027.44;;;2.36;59.96
50702;BME280;36670;50.094;8.496;2023-01-26T10:26:11;101023.72;;;2.06;60.46
50702;BME280;36670;50.094;8.496;2023-01-26T10:28:37;101023.56;;;2.31;59.52
50702;BME280;36670;50.094;8.496;2023-01-26T10:31:07;101019.13;;;2.53;60.50
50702;BME280;36670;50.094;8.496;2023-01-26T10:33:36;101007.66;;;2.81;59.90
50702;BME280;36670;50.094;8.496;2023-01-26T10:36:04;101010.03;;;2.84;59.92
50702;BME280;36670;50.094;8.496;2023-01-26T10:38:41;101002.88;;;3.51;59.35
50702;BME280;36670;50.094;8.496;2023-01-26T10:43:56;101001.13;;;3.80;56.61
50702;BME280;36670;50.094;8.496;2023-01-26T10:46:31;101003.97;;;2.73;57.26
50702;BME280;36670;50.094;8.496;2023-01-26T10:49:00;101008.06;;;2.31;58.37
50702;BME280;36670;50.094;8.496;2023-01-26T10:51:31;101005.28;;;1.77;60.17
50702;BME280;36670;50.094;8.496;2023-01-26T10:54:14;101005.06;;;1.86;59.91
50702;BME280;36670;50.094;8.496;2023-01-26T10:56:44;101003.63;;;1.76;59.56
50702;BME280;36670;50.094;8.496;2023-01-26T10:59:21;101005.47;;;1.35;61.63
50702;BME280;36670;50.094;8.496;2023-01-26T11:07:37;100997.09;;;1.85;60.68
50702;BME280;36670;50.094;8.496;2023-01-26T11:10:22;100992.09;;;1.65;60.34
50702;BME280;36670;50.094;8.496;2023-01-26T11:12:49;100989.16;;;1.35;61.12
50702;BME280;36670;50.094;8.496;2023-01-26T11:15:20;100994.97;;;1.64;61.43
50702;BME280;36670;50.094;8.496;2023-01-26T11:17:58;100987.78;;;1.71;60.80
50702;BME280;36670;50.094;8.496;2023-01-26T11:23:13;100973.00;;;2.05;59.68
50702;BME280;36670;50.094;8.496;2023-01-26T11:25:49;100969.38;;;2.36;58.78
50702;BME280;36670;50.094;8.496;2023-01-26T11:28:35;100961.53;;;2.56;59.37
50702;BME280;36670;50.094;8.496;2023-01-26T11:31:13;100959.06;;;2.84;59.42
50702;BME280;36670;50.094;8.496;2023-01-26T11:36:58;100962.66;;;2.47;58.54
50702;BME280;36670;50.094;8.496;2023-01-26T11:48:52;100970.44;;;2.27;58.34
50702;BME280;36670;50.094;8.496;2023-01-26T11:57:12;100943.50;;;2.55;57.88
50702;BME280;36670;50.094;8.496;2023-01-26T11:59:51;100937.94;;;2.02;59.34
50702;BME280;36670;50.094;8.496;2023-01-26T12:02:28;100930.38;;;2.12;59.78
50702;BME280;36670;50.094;8.496;2023-01-26T12:04:56;100929.06;;;2.46;58.49
50702;BME280;36670;50.094;8.496;2023-01-26T12:07:34;100933.44;;;1.86;59.71
50702;BME280;36670;50.094;8.496;2023-01-26T12:10:16;100927.09;;;2.17;60.01
50702;BME280;36670;50.094;8.496;2023-01-26T12:12:51;100925.53;;;2.22;59.26
50702;BME280;36670;50.094;8.496;2023-01-26T12:15:26;100922.50;;;2.17;59.86
50702;BME280;36670;50.094;8.496;2023-01-26T12:20:57;100906.94;;;2.26;59.37
50702;BME280;36670;50.094;8.496;2023-01-26T12:23:57;100896.44;;;2.38;60.08
50702;BME280;36670;50.094;8.496;2023-01-26T12:26:25;100899.13;;;2.61;58.93
50702;BME280;36670;50.094;8.496;2023-01-26T12:29:10;100894.97;;;2.50;58.97
50702;BME280;36670;50.094;8.496;2023-01-26T12:31:48;100893.38;;;1.95;60.29
50702;BME280;36670;50.094;8.496;2023-01-26T12:34:26;100885.88;;;1.74;60.20
50702;BME280;36670;50.094;8.496;2023-01-26T12:37:30;100877.88;;;2.18;61.04
50702;BME280;36670;50.094;8.496;2023-01-26T12:40:11;100889.09;;;2.62;59.01
50702;BME280;36670;50.094;8.496;2023-01-26T12:42:59;100884.63;;;2.46;59.35
50702;BME280;36670;50.094;8.496;2023-01-26T12:45:34;100879.19;;;2.46;59.02
50702;BME280;36670;50.094;8.496;2023-01-26T12:48:22;100874.06;;;2.28;59.83
50702;BME280;36670;50.094;8.496;2023-01-26T12:50:57;100872.22;;;2.05;60.73
50702;BME280;36670;50.094;8.496;2023-01-26T12:59:17;100871.06;;;2.76;58.85
50702;BME280;36670;50.094;8.496;2023-01-26T13:01:44;100875.34;;;2.70;58.92
50702;BME280;36670;50.094;8.496;2023-01-26T13:04:13;100873.09;;;2.73;59.12
50702;BME280;36670;50.094;8.496;2023-01-26T13:06:40;100867.63;;;2.59;59.56
50702;BME280;36670;50.094;8.496;2023-01-26T13:11:48;100868.88;;;2.86;59.65
50702;BME280;36670;50.094;8.496;2023-01-26T13:14:59;100867.34;;;2.68;59.92
50702;BME280;36670;50.094;8.496;2023-01-26T13:19:54;100866.63;;;2.75;59.95
50702;BME280;36670;50.094;8.496;2023-01-26T13:25:11;100861.53;;;2.18;60.78
50702;BME280;36670;50.094;8.496;2023-01-26T13:35:20;100857.88;;;2.79;60.39
50702;BME280;36670;50.094;8.496;2023-01-26T13:38:10;100857.59;;;2.74;60.96
50702;BME280;36670;50.094;8.496;2023-01-26T13:40:46;100870.09;;;2.83;60.73
50702;BME280;36670;50.094;8.496;2023-01-26T13:46:08;100862.41;;;2.87;61.00
50702;BME280;36670;50.094;8.496;2023-01-26T13:48:43;100870.66;;;2.94;60.72
50702;BME280;36670;50.094;8.496;2023-01-26T13:51:33;100867.28;;;2.92;60.65
50702;BME280;36670;50.094;8.496;2023-01-26T13:54:03;100876.97;;;2.79;61.70
50702;BME280;36670;50.094;8.496;2023-01-26T13:56:37;100872.72;;;2.92;60.87
50702;BME280;36670;50.094;8.496;2023-01-26T13:59:12;100872.06;;;3.04;60.89
50702;BME280;36670;50.094;8.496;2023-01-26T14:01:49;100871.41;;;2.72;61.84
50702;BME280;36670;50.094;8.496;2023-01-26T14:06:51;100878.25;;;2.53;63.00
50702;BME280;36670;50.094;8.496;2023-01-26T14:09:19;100875.25;;;2.78;62.61
50702;BME280;36670;50.094;8.496;2023-01-26T14:11:51;100876.88;;;3.02;62.00
50702;BME280;36670;50.094;8.496;2023-01-26T14:14:26;100881.84;;;3.14;61.92
50702;BME280;36670;50.094;8.496;2023-01-26T14:16:52;100879.31;;;3.27;61.97
50702;BME280;36670;50.094;8.496;2023-01-26T14:19:20;100883.25;;;3.10;61.66
50702;BME280;36670;50.094;8.496;2023-01-26T14:21:58;100887.13;;;3.00;62.09
50702;BME280;36670;50.094;8.496;2023-01-26T14:24:37;100894.53;;;2.77;62.81
50702;BME280;36670;50.094;8.496;2023-01-26T14:29:57;100904.88;;;2.66;63.46
50702;BME280;36670;50.094;8.496;2023-01-26T14:32:24;100911.69;;;2.09;64.22